sensor_id;sensor_type;location;lat;lon;timestamp;P1;durP1;ratioP1;P2;durP2;ratioP2
73382;SDS011;61600;48.126;11.542;2022-07-06T00:02:07;3.13;;;1.55;;
73382;SDS011;61600;48.126;11.542;2022-07-06T00:04:33;3.45;;;1.40;;
73382;SDS011;61600;48.126;11.542;2022-07-06T00:06:59;2.70;;;1.58;;
73382;SDS011;61600;48.126;11.542;2022-07-06T00:09:24;2.30;;;1.50;;
73382;SDS011;61600;48.126;11.542;2022-07-06T00:11:50;3.10;;;1.50;;
73382;SDS011;61600;48.126;11.542;2022-07-06T00:14:15;2.53;;;1.48;;
73382;SDS011;61600;48.126;11.542;2022-07-06T00:16:41;2.90;;;1.40;;
73382;SDS011;61600;48.126;11.542;2022-07-06T00:19:06;2.58;;;1.50;;
73382;SDS011;61600;48.126;11.542;2022-07-06T00:21:35;1.75;;;1.52;;
73382;SDS011;61600;48.126;11.542;2022-07-06T00:24:01;4.15;;;1.50;;
73382;SDS011;61600;48.126;11.542;2022-07-06T00:26:26;2.80;;;1.48;;
73382;SDS011;61600;48.126;11.542;2022-07-06T00:28:52;2.13;;;1.40;;
73382;SDS011;61600;48.126;11.542;2022-07-06T00:31:17;3.20;;;1.58;;
73382;SDS011;61600;48.126;11.542;2022-07-06T00:33:43;3.15;;;1.80;;
73382;SDS011;61600;48.126;11.542;2022-07-06T00:36:08;2.40;;;1.58;;
73382;SDS011;61600;48.126;11.542;2022-07-06T00:38:34;3.45;;;1.58;;
73382;SDS011;61600;48.126;11.542;2022-07-06T00:40:59;7.13;;;1.90;;
73382;SDS011;61600;48.126;11.542;2022-07-06T00:43:25;2.92;;;1.60;;
73382;SDS011;61600;48.126;11.542;2022-07-06T00:45:50;4.35;;;1.80;;
73382;SDS011;61600;48.126;11.542;2022-07-06T00:48:15;2.88;;;1.58;;
73382;SDS011;61600;48.126;11.542;2022-07-06T00:50:42;2.72;;;1.70;;
73382;SDS011;61600;48.126;11.542;2022-07-06T00:53:07;5.80;;;1.70;;
73382;SDS011;61600;48.126;11.542;2022-07-06T00:55:34;5.40;;;1.92;;
73382;SDS011;61600;48.126;11.542;2022-07-06T00:58:05;2.83;;;1.50;;
73382;SDS011;61600;48.126;11.542;2022-07-06T01:00:32;2.60;;;1.73;;
73382;SDS011;61600;48.126;11.542;2022-07-06T01:02:58;2.45;;;1.65;;
73382;SDS011;61600;48.126;11.542;2022-07-06T01:05:24;3.97;;;1.70;;
73382;SDS011;61600;48.126;11.542;2022-07-06T01:10:18;1.45;;;1.30;;
73382;SDS011;61600;48.126;11.542;2022-07-06T01:12:45;2.42;;;1.58;;
73382;SDS011;61600;48.126;11.542;2022-07-06T01:15:16;1.63;;;1.27;;
73382;SDS011;61600;48.126;11.542;2022-07-06T01:17:43;2.55;;;1.60;;
73382;SDS011;61600;48.126;11.542;2022-07-06T01:20:16;2.78;;;1.55;;
73382;SDS011;61600;48.126;11.542;2022-07-06T01:25:09;2.10;;;1.35;;
73382;SDS011;61600;48.126;11.542;2022-07-06T01:27:35;2.85;;;1.40;;
73382;SDS011;61600;48.126;11.542;2022-07-06T01:30:05;3.83;;;1.35;;
73382;SDS011;61600;48.126;11.542;2022-07-06T01:32:39;2.58;;;1.42;;
73382;SDS011;61600;48.126;11.542;2022-07-06T01:35:05;2.20;;;1.55;;
73382;SDS011;61600;48.126;11.542;2022-07-06T01:37:32;2.38;;;1.35;;
73382;SDS011;61600;48.126;11.542;2022-07-06T01:40:02;3.28;;;1.70;;
73382;SDS011;61600;48.126;11.542;2022-07-06T01:42:30;3.28;;;1.60;;
73382;SDS011;61600;48.126;11.542;2022-07-06T01:44:55;2.45;;;1.55;;
73382;SDS011;61600;48.126;11.542;2022-07-06T01:47:21;1.70;;;1.50;;
73382;SDS011;61600;48.126;11.542;2022-07-06T01:49:47;3.55;;;1.65;;
73382;SDS011;61600;48.126;11.542;2022-07-06T01:52:13;1.90;;;1.60;;
73382;SDS011;61600;48.126;11.542;2022-07-06T01:54:38;3.40;;;1.40;;
73382;SDS011;61600;48.126;11.542;2022-07-06T01:57:04;2.97;;;1.42;;
73382;SDS011;61600;48.126;11.542;2022-07-06T01:59:30;2.53;;;1.48;;
73382;SDS011;61600;48.126;11.542;2022-07-06T02:01:55;3.42;;;1.88;;
73382;SDS011;61600;48.126;11.542;2022-07-06T02:04:21;1.85;;;1.40;;
73382;SDS011;61600;48.126;11.542;2022-07-06T02:06:47;2.38;;;1.88;;
73382;SDS011;61600;48.126;11.542;2022-07-06T02:09:12;2.55;;;1.70;;
73382;SDS011;61600;48.126;11.542;2022-07-06T02:11:38;3.55;;;1.80;;
73382;SDS011;61600;48.126;11.542;2022-07-06T02:14:03;2.05;;;1.58;;
73382;SDS011;61600;48.126;11.542;2022-07-06T02:16:29;2.67;;;1.40;;
73382;SDS011;61600;48.126;11.542;2022-07-06T02:18:54;2.40;;;1.70;;
73382;SDS011;61600;48.126;11.542;2022-07-06T02:21:20;2.42;;;1.80;;
73382;SDS011;61600;48.126;11.542;2022-07-06T02:23:45;2.63;;;1.35;;
73382;SDS011;61600;48.126;11.542;2022-07-06T02:26:10;3.78;;;2.05;;
73382;SDS011;61600;48.126;11.542;2022-07-06T02:28:36;3.33;;;1.42;;
73382;SDS011;61600;48.126;11.542;2022-07-06T02:31:01;2.00;;;1.38;;
73382;SDS011;61600;48.126;11.542;2022-07-06T02:35:54;3.15;;;1.65;;
73382;SDS011;61600;48.126;11.542;2022-07-06T02:38:19;3.58;;;1.60;;
73382;SDS011;61600;48.126;11.542;2022-07-06T02:40:45;3.13;;;1.50;;
73382;SDS011;61600;48.126;11.542;2022-07-06T02:43:10;3.45;;;1.70;;
73382;SDS011;61600;48.126;11.542;2022-07-06T02:45:36;3.40;;;1.95;;
73382;SDS011;61600;48.126;11.542;2022-07-06T02:48:02;2.83;;;1.63;;
73382;SDS011;61600;48.126;11.542;2022-07-06T02:50:27;2.72;;;1.77;;
73382;SDS011;61600;48.126;11.542;2022-07-06T02:52:53;2.17;;;1.67;;
73382;SDS011;61600;48.126;11.542;2022-07-06T02:55:20;4.28;;;2.00;;
73382;SDS011;61600;48.126;11.542;2022-07-06T02:57:46;3.97;;;1.67;;
73382;SDS011;61600;48.126;11.542;2022-07-06T03:00:12;5.07;;;1.70;;
73382;SDS011;61600;48.126;11.542;2022-07-06T03:02:38;2.83;;;1.60;;
73382;SDS011;61600;48.126;11.542;2022-07-06T03:05:04;2.50;;;1.50;;
73382;SDS011;61600;48.126;11.542;2022-07-06T03:07:30;2.55;;;1.60;;
73382;SDS011;61600;48.126;11.542;2022-07-06T03:09:55;2.15;;;1.50;;
73382;SDS011;61600;48.126;11.542;2022-07-06T03:12:21;3.55;;;1.80;;
73382;SDS011;61600;48.126;11.542;2022-07-06T03:14:46;2.33;;;1.73;;
73382;SDS011;61600;48.126;11.542;2022-07-06T03:17:12;4.20;;;1.90;;
73382;SDS011;61600;48.126;11.542;2022-07-06T03:19:37;3.35;;;1.67;;
73382;SDS011;61600;48.126;11.542;2022-07-06T03:22:03;3.40;;;2.17;;
73382;SDS011;61600;48.126;11.542;2022-07-06T03:24:29;3.88;;;1.70;;
73382;SDS011;61600;48.126;11.542;2022-07-06T03:26:54;2.47;;;1.65;;
73382;SDS011;61600;48.126;11.542;2022-07-06T03:29:20;3.97;;;2.00;;
73382;SDS011;61600;48.126;11.542;2022-07-06T03:31:45;4.25;;;2.00;;
73382;SDS011;61600;48.126;11.542;2022-07-06T03:34:11;2.50;;;1.80;;
73382;SDS011;61600;48.126;11.542;2022-07-06T03:36:37;4.32;;;2.15;;
73382;SDS011;61600;48.126;11.542;2022-07-06T03:39:03;6.40;;;1.65;;
73382;SDS011;61600;48.126;11.542;2022-07-06T03:41:28;4.00;;;1.63;;
73382;SDS011;61600;48.126;11.542;2022-07-06T03:43:54;3.22;;;1.65;;
73382;SDS011;61600;48.126;11.542;2022-07-06T03:46:19;2.53;;;1.58;;
73382;SDS011;61600;48.126;11.542;2022-07-06T03:48:45;3.33;;;1.80;;
73382;SDS011;61600;48.126;11.542;2022-07-06T03:51:15;2.45;;;1.70;;
73382;SDS011;61600;48.126;11.542;2022-07-06T03:53:41;2.97;;;2.00;;
73382;SDS011;61600;48.126;11.542;2022-07-06T03:56:06;3.92;;;1.67;;
73382;SDS011;61600;48.126;11.542;2022-07-06T03:58:50;4.07;;;1.70;;
73382;SDS011;61600;48.126;11.542;2022-07-06T04:01:16;3.40;;;1.70;;
73382;SDS011;61600;48.126;11.542;2022-07-06T04:03:42;3.08;;;1.75;;
73382;SDS011;61600;48.126;11.542;2022-07-06T04:06:07;2.22;;;1.77;;
73382;SDS011;61600;48.126;11.542;2022-07-06T04:08:33;2.80;;;1.80;;
73382;SDS011;61600;48.126;11.542;2022-07-06T04:10:58;4.05;;;1.98;;
73382;SDS011;61600;48.126;11.542;2022-07-06T04:13:24;5.38;;;2.00;;
73382;SDS011;61600;48.126;11.542;2022-07-06T04:15:50;2.40;;;1.83;;
73382;SDS011;61600;48.126;11.542;2022-07-06T04:18:16;3.88;;;1.90;;
73382;SDS011;61600;48.126;11.542;2022-07-06T04:20:47;5.22;;;1.83;;
73382;SDS011;61600;48.126;11.542;2022-07-06T04:23:13;3.05;;;1.70;;
73382;SDS011;61600;48.126;11.542;2022-07-06T04:25:38;3.88;;;1.77;;
73382;SDS011;61600;48.126;11.542;2022-07-06T04:28:04;4.03;;;1.83;;
73382;SDS011;61600;48.126;11.542;2022-07-06T04:30:30;2.33;;;1.65;;
73382;SDS011;61600;48.126;11.542;2022-07-06T04:32:55;3.03;;;1.70;;
73382;SDS011;61600;48.126;11.542;2022-07-06T04:35:21;5.65;;;2.95;;
73382;SDS011;61600;48.126;11.542;2022-07-06T04:37:47;2.97;;;1.70;;
73382;SDS011;61600;48.126;11.542;2022-07-06T04:40:13;2.08;;;1.67;;
73382;SDS011;61600;48.126;11.542;2022-07-06T04:42:39;2.67;;;1.75;;
73382;SDS011;61600;48.126;11.542;2022-07-06T04:45:05;3.38;;;2.03;;
73382;SDS011;61600;48.126;11.542;2022-07-06T04:47:31;2.33;;;1.80;;
73382;SDS011;61600;48.126;11.542;2022-07-06T04:49:57;4.13;;;2.10;;
73382;SDS011;61600;48.126;11.542;2022-07-06T04:52:23;2.58;;;1.73;;
73382;SDS011;61600;48.126;11.542;2022-07-06T04:54:48;3.20;;;1.80;;
73382;SDS011;61600;48.126;11.542;2022-07-06T04:57:14;2.67;;;1.95;;
73382;SDS011;61600;48.126;11.542;2022-07-06T04:59:39;3.78;;;1.80;;
73382;SDS011;61600;48.126;11.542;2022-07-06T05:02:05;5.07;;;1.90;;
73382;SDS011;61600;48.126;11.542;2022-07-06T05:04:31;2.70;;;1.88;;
73382;SDS011;61600;48.126;11.542;2022-07-06T05:06:56;3.35;;;2.00;;
73382;SDS011;61600;48.126;11.542;2022-07-06T05:09:22;4.13;;;1.88;;
73382;SDS011;61600;48.126;11.542;2022-07-06T05:11:47;2.95;;;2.00;;
73382;SDS011;61600;48.126;11.542;2022-07-06T05:14:13;2.47;;;1.77;;
73382;SDS011;61600;48.126;11.542;2022-07-06T05:16:41;2.45;;;1.70;;
73382;SDS011;61600;48.126;11.542;2022-07-06T05:19:07;3.15;;;1.90;;
73382;SDS011;61600;48.126;11.542;2022-07-06T05:21:32;3.95;;;1.77;;
73382;SDS011;61600;48.126;11.542;2022-07-06T05:23:58;3.00;;;1.90;;
73382;SDS011;61600;48.126;11.542;2022-07-06T05:26:24;1.92;;;1.60;;
73382;SDS011;61600;48.126;11.542;2022-07-06T05:28:52;3.17;;;1.77;;
73382;SDS011;61600;48.126;11.542;2022-07-06T05:31:17;4.75;;;1.90;;
73382;SDS011;61600;48.126;11.542;2022-07-06T05:33:43;2.53;;;1.67;;
73382;SDS011;61600;48.126;11.542;2022-07-06T05:36:12;3.83;;;1.90;;
73382;SDS011;61600;48.126;11.542;2022-07-06T05:38:37;2.58;;;1.60;;
73382;SDS011;61600;48.126;11.542;2022-07-06T05:41:03;3.00;;;1.85;;
73382;SDS011;61600;48.126;11.542;2022-07-06T05:43:28;5.13;;;2.33;;
73382;SDS011;61600;48.126;11.542;2022-07-06T05:45:54;2.40;;;1.38;;
73382;SDS011;61600;48.126;11.542;2022-07-06T05:48:20;2.90;;;1.67;;
73382;SDS011;61600;48.126;11.542;2022-07-06T05:51:07;4.38;;;2.10;;
73382;SDS011;61600;48.126;11.542;2022-07-06T05:53:35;2.20;;;1.63;;
73382;SDS011;61600;48.126;11.542;2022-07-06T05:56:00;5.70;;;1.92;;
73382;SDS011;61600;48.126;11.542;2022-07-06T05:58:26;3.05;;;1.90;;
73382;SDS011;61600;48.126;11.542;2022-07-06T06:00:57;4.30;;;2.00;;
73382;SDS011;61600;48.126;11.542;2022-07-06T06:03:22;2.65;;;1.90;;
73382;SDS011;61600;48.126;11.542;2022-07-06T06:05:51;4.50;;;1.80;;
73382;SDS011;61600;48.126;11.542;2022-07-06T06:08:16;4.43;;;1.95;;
73382;SDS011;61600;48.126;11.542;2022-07-06T06:10:42;5.07;;;1.95;;
73382;SDS011;61600;48.126;11.542;2022-07-06T06:13:07;5.32;;;1.80;;
73382;SDS011;61600;48.126;11.542;2022-07-06T06:15:33;3.90;;;1.90;;
73382;SDS011;61600;48.126;11.542;2022-07-06T06:18:00;3.20;;;1.83;;
73382;SDS011;61600;48.126;11.542;2022-07-06T06:20:26;5.63;;;2.80;;
73382;SDS011;61600;48.126;11.542;2022-07-06T06:22:53;6.93;;;2.53;;
73382;SDS011;61600;48.126;11.542;2022-07-06T06:25:30;5.43;;;2.35;;
73382;SDS011;61600;48.126;11.542;2022-07-06T06:27:57;2.10;;;1.60;;
73382;SDS011;61600;48.126;11.542;2022-07-06T06:30:23;2.40;;;1.70;;
73382;SDS011;61600;48.126;11.542;2022-07-06T06:32:49;4.10;;;3.00;;
73382;SDS011;61600;48.126;11.542;2022-07-06T06:35:15;4.05;;;2.10;;
73382;SDS011;61600;48.126;11.542;2022-07-06T06:37:46;3.40;;;2.00;;
73382;SDS011;61600;48.126;11.542;2022-07-06T06:40:11;3.85;;;1.90;;
73382;SDS011;61600;48.126;11.542;2022-07-06T06:42:37;4.53;;;1.90;;
73382;SDS011;61600;48.126;11.542;2022-07-06T06:45:04;2.50;;;1.83;;
73382;SDS011;61600;48.126;11.542;2022-07-06T06:47:30;3.95;;;2.30;;
73382;SDS011;61600;48.126;11.542;2022-07-06T06:49:56;3.67;;;2.17;;
73382;SDS011;61600;48.126;11.542;2022-07-06T06:52:21;3.85;;;2.05;;
73382;SDS011;61600;48.126;11.542;2022-07-06T06:54:47;4.38;;;2.20;;
73382;SDS011;61600;48.126;11.542;2022-07-06T06:57:12;5.82;;;2.13;;
73382;SDS011;61600;48.126;11.542;2022-07-06T06:59:38;2.40;;;2.00;;
73382;SDS011;61600;48.126;11.542;2022-07-06T07:02:03;4.60;;;2.03;;
73382;SDS011;61600;48.126;11.542;2022-07-06T07:04:29;3.88;;;2.50;;
73382;SDS011;61600;48.126;11.542;2022-07-06T07:06:56;3.58;;;2.20;;
73382;SDS011;61600;48.126;11.542;2022-07-06T07:09:21;4.68;;;2.10;;
73382;SDS011;61600;48.126;11.542;2022-07-06T07:11:47;4.78;;;2.13;;
73382;SDS011;61600;48.126;11.542;2022-07-06T07:14:13;3.75;;;1.95;;
73382;SDS011;61600;48.126;11.542;2022-07-06T07:16:49;3.95;;;2.33;;
73382;SDS011;61600;48.126;11.542;2022-07-06T07:19:15;10.20;;;2.33;;
73382;SDS011;61600;48.126;11.542;2022-07-06T07:21:41;3.83;;;2.10;;
73382;SDS011;61600;48.126;11.542;2022-07-06T07:24:11;6.35;;;2.10;;
73382;SDS011;61600;48.126;11.542;2022-07-06T07:26:37;2.83;;;2.20;;
73382;SDS011;61600;48.126;11.542;2022-07-06T07:29:03;3.03;;;2.08;;
73382;SDS011;61600;48.126;11.542;2022-07-06T07:31:28;3.50;;;1.95;;
73382;SDS011;61600;48.126;11.542;2022-07-06T07:33:54;5.55;;;2.25;;
73382;SDS011;61600;48.126;11.542;2022-07-06T07:36:22;4.40;;;2.25;;
73382;SDS011;61600;48.126;11.542;2022-07-06T07:38:50;2.95;;;2.42;;
73382;SDS011;61600;48.126;11.542;2022-07-06T07:41:15;4.47;;;2.15;;
73382;SDS011;61600;48.126;11.542;2022-07-06T07:43:42;3.85;;;2.22;;
73382;SDS011;61600;48.126;11.542;2022-07-06T07:46:08;4.00;;;2.22;;
73382;SDS011;61600;48.126;11.542;2022-07-06T07:48:34;3.25;;;1.98;;
73382;SDS011;61600;48.126;11.542;2022-07-06T07:50:59;4.72;;;2.03;;
73382;SDS011;61600;48.126;11.542;2022-07-06T07:53:25;2.97;;;1.90;;
73382;SDS011;61600;48.126;11.542;2022-07-06T07:55:51;5.05;;;2.05;;
73382;SDS011;61600;48.126;11.542;2022-07-06T07:58:17;4.80;;;2.00;;
73382;SDS011;61600;48.126;11.542;2022-07-06T08:00:42;4.00;;;2.45;;
73382;SDS011;61600;48.126;11.542;2022-07-06T08:03:08;4.03;;;2.28;;
73382;SDS011;61600;48.126;11.542;2022-07-06T08:05:45;5.10;;;2.30;;
73382;SDS011;61600;48.126;11.542;2022-07-06T08:08:15;3.60;;;2.20;;
73382;SDS011;61600;48.126;11.542;2022-07-06T08:10:40;3.00;;;2.00;;
73382;SDS011;61600;48.126;11.542;2022-07-06T08:13:06;3.88;;;2.00;;
73382;SDS011;61600;48.126;11.542;2022-07-06T08:15:35;4.28;;;2.05;;
73382;SDS011;61600;48.126;11.542;2022-07-06T08:18:01;2.80;;;1.98;;
73382;SDS011;61600;48.126;11.542;2022-07-06T08:20:26;6.50;;;3.00;;
73382;SDS011;61600;48.126;11.542;2022-07-06T08:22:52;3.92;;;2.40;;
73382;SDS011;61600;48.126;11.542;2022-07-06T08:25:18;3.88;;;2.47;;
73382;SDS011;61600;48.126;11.542;2022-07-06T08:27:43;8.63;;;2.50;;
73382;SDS011;61600;48.126;11.542;2022-07-06T08:30:09;3.92;;;2.40;;
73382;SDS011;61600;48.126;11.542;2022-07-06T08:35:06;4.43;;;2.20;;
73382;SDS011;61600;48.126;11.542;2022-07-06T08:40:01;5.07;;;2.28;;
73382;SDS011;61600;48.126;11.542;2022-07-06T08:42:32;6.28;;;2.45;;
73382;SDS011;61600;48.126;11.542;2022-07-06T08:45:00;3.42;;;2.08;;
73382;SDS011;61600;48.126;11.542;2022-07-06T08:47:28;5.22;;;2.40;;
73382;SDS011;61600;48.126;11.542;2022-07-06T08:49:55;6.20;;;3.03;;
73382;SDS011;61600;48.126;11.542;2022-07-06T08:52:22;3.60;;;2.25;;
73382;SDS011;61600;48.126;11.542;2022-07-06T08:54:50;3.53;;;2.42;;
73382;SDS011;61600;48.126;11.542;2022-07-06T08:57:16;4.88;;;2.65;;
73382;SDS011;61600;48.126;11.542;2022-07-06T08:59:43;4.22;;;2.28;;
73382;SDS011;61600;48.126;11.542;2022-07-06T09:02:09;6.30;;;2.47;;
73382;SDS011;61600;48.126;11.542;2022-07-06T09:04:36;4.50;;;2.60;;
73382;SDS011;61600;48.126;11.542;2022-07-06T09:07:02;4.95;;;2.40;;
73382;SDS011;61600;48.126;11.542;2022-07-06T09:09:30;3.40;;;2.45;;
73382;SDS011;61600;48.126;11.542;2022-07-06T09:11:58;7.60;;;2.95;;
73382;SDS011;61600;48.126;11.542;2022-07-06T09:14:24;4.90;;;2.45;;
73382;SDS011;61600;48.126;11.542;2022-07-06T09:17:03;5.22;;;2.60;;
73382;SDS011;61600;48.126;11.542;2022-07-06T09:19:31;5.82;;;2.70;;
73382;SDS011;61600;48.126;11.542;2022-07-06T09:21:58;6.50;;;2.83;;
73382;SDS011;61600;48.126;11.542;2022-07-06T09:24:24;4.30;;;2.15;;
73382;SDS011;61600;48.126;11.542;2022-07-06T09:26:54;6.80;;;3.00;;
73382;SDS011;61600;48.126;11.542;2022-07-06T09:29:30;3.47;;;2.40;;
73382;SDS011;61600;48.126;11.542;2022-07-06T09:31:57;4.78;;;2.70;;
73382;SDS011;61600;48.126;11.542;2022-07-06T09:34:46;6.25;;;2.45;;
73382;SDS011;61600;48.126;11.542;2022-07-06T09:37:13;8.60;;;2.65;;
73382;SDS011;61600;48.126;11.542;2022-07-06T09:39:39;3.97;;;2.25;;
73382;SDS011;61600;48.126;11.542;2022-07-06T09:42:06;5.25;;;3.10;;
73382;SDS011;61600;48.126;11.542;2022-07-06T09:44:39;7.65;;;2.42;;
73382;SDS011;61600;48.126;11.542;2022-07-06T09:47:07;4.97;;;2.40;;
73382;SDS011;61600;48.126;11.542;2022-07-06T09:49:34;4.97;;;2.60;;
73382;SDS011;61600;48.126;11.542;2022-07-06T09:52:02;5.32;;;2.50;;
73382;SDS011;61600;48.126;11.542;2022-07-06T09:54:30;4.78;;;2.75;;
73382;SDS011;61600;48.126;11.542;2022-07-06T09:56:57;4.53;;;2.60;;
73382;SDS011;61600;48.126;11.542;2022-07-06T09:59:24;5.55;;;2.67;;
73382;SDS011;61600;48.126;11.542;2022-07-06T10:01:54;3.65;;;2.30;;
73382;SDS011;61600;48.126;11.542;2022-07-06T10:04:22;3.33;;;2.08;;
73382;SDS011;61600;48.126;11.542;2022-07-06T10:06:49;3.47;;;2.47;;
73382;SDS011;61600;48.126;11.542;2022-07-06T10:09:16;3.65;;;2.35;;
73382;SDS011;61600;48.126;11.542;2022-07-06T10:12:01;4.90;;;2.30;;
73382;SDS011;61600;48.126;11.542;2022-07-06T10:14:28;2.80;;;2.20;;
73382;SDS011;61600;48.126;11.542;2022-07-06T10:16:56;4.22;;;2.80;;
73382;SDS011;61600;48.126;11.542;2022-07-06T10:19:23;7.18;;;2.67;;
73382;SDS011;61600;48.126;11.542;2022-07-06T10:21:50;4.18;;;2.53;;
73382;SDS011;61600;48.126;11.542;2022-07-06T10:24:19;5.03;;;2.75;;
73382;SDS011;61600;48.126;11.542;2022-07-06T10:26:46;3.85;;;2.20;;
73382;SDS011;61600;48.126;11.542;2022-07-06T10:29:12;5.40;;;2.58;;
73382;SDS011;61600;48.126;11.542;2022-07-06T10:31:59;4.28;;;2.30;;
73382;SDS011;61600;48.126;11.542;2022-07-06T10:34:26;5.35;;;3.13;;
73382;SDS011;61600;48.126;11.542;2022-07-06T10:36:52;4.65;;;2.60;;
73382;SDS011;61600;48.126;11.542;2022-07-06T10:39:32;6.55;;;3.17;;
73382;SDS011;61600;48.126;11.542;2022-07-06T10:45:07;4.03;;;2.35;;
73382;SDS011;61600;48.126;11.542;2022-07-06T10:47:34;3.92;;;2.20;;
73382;SDS011;61600;48.126;11.542;2022-07-06T10:50:01;4.78;;;2.40;;
73382;SDS011;61600;48.126;11.542;2022-07-06T10:55:31;3.70;;;2.08;;
73382;SDS011;61600;48.126;11.542;2022-07-06T10:57:58;6.10;;;2.20;;
73382;SDS011;61600;48.126;11.542;2022-07-06T11:00:25;2.85;;;1.95;;
73382;SDS011;61600;48.126;11.542;2022-07-06T11:02:50;8.25;;;2.20;;
73382;SDS011;61600;48.126;11.542;2022-07-06T11:08:10;2.83;;;1.90;;
73382;SDS011;61600;48.126;11.542;2022-07-06T11:10:48;6.68;;;2.05;;
73382;SDS011;61600;48.126;11.542;2022-07-06T11:13:27;2.97;;;1.95;;
73382;SDS011;61600;48.126;11.542;2022-07-06T11:16:00;6.60;;;1.70;;
73382;SDS011;61600;48.126;11.542;2022-07-06T11:18:28;3.90;;;1.98;;
73382;SDS011;61600;48.126;11.542;2022-07-06T11:23:57;3.08;;;2.20;;
73382;SDS011;61600;48.126;11.542;2022-07-06T11:26:23;3.65;;;2.05;;
73382;SDS011;61600;48.126;11.542;2022-07-06T11:28:50;2.75;;;1.80;;
73382;SDS011;61600;48.126;11.542;2022-07-06T11:31:17;3.65;;;1.80;;
73382;SDS011;61600;48.126;11.542;2022-07-06T11:33:44;3.03;;;1.70;;
73382;SDS011;61600;48.126;11.542;2022-07-06T11:36:20;5.55;;;2.00;;
73382;SDS011;61600;48.126;11.542;2022-07-06T11:38:48;4.57;;;2.05;;
73382;SDS011;61600;48.126;11.542;2022-07-06T11:41:14;9.88;;;3.35;;
73382;SDS011;61600;48.126;11.542;2022-07-06T11:43:41;12.60;;;4.40;;
73382;SDS011;61600;48.126;11.542;2022-07-06T11:46:27;4.95;;;2.13;;
73382;SDS011;61600;48.126;11.542;2022-07-06T11:48:57;5.97;;;1.88;;
73382;SDS011;61600;48.126;11.542;2022-07-06T11:51:25;4.80;;;1.95;;
73382;SDS011;61600;48.126;11.542;2022-07-06T11:53:54;4.93;;;2.10;;
73382;SDS011;61600;48.126;11.542;2022-07-06T11:56:21;4.20;;;2.38;;
73382;SDS011;61600;48.126;11.542;2022-07-06T11:58:51;5.05;;;1.92;;
73382;SDS011;61600;48.126;11.542;2022-07-06T12:01:17;7.13;;;2.50;;
73382;SDS011;61600;48.126;11.542;2022-07-06T12:03:43;7.60;;;2.58;;
73382;SDS011;61600;48.126;11.542;2022-07-06T12:06:14;3.47;;;1.75;;
73382;SDS011;61600;48.126;11.542;2022-07-06T12:08:45;4.28;;;2.00;;
73382;SDS011;61600;48.126;11.542;2022-07-06T12:11:28;4.75;;;1.98;;
73382;SDS011;61600;48.126;11.542;2022-07-06T12:13:57;3.65;;;1.83;;
73382;SDS011;61600;48.126;11.542;2022-07-06T12:16:34;3.17;;;1.90;;
73382;SDS011;61600;48.126;11.542;2022-07-06T12:19:03;2.65;;;1.80;;
73382;SDS011;61600;48.126;11.542;2022-07-06T12:21:29;2.15;;;1.60;;
73382;SDS011;61600;48.126;11.542;2022-07-06T12:23:55;3.38;;;1.92;;
73382;SDS011;61600;48.126;11.542;2022-07-06T12:26:22;3.10;;;1.80;;
73382;SDS011;61600;48.126;11.542;2022-07-06T12:29:04;2.45;;;1.65;;
73382;SDS011;61600;48.126;11.542;2022-07-06T12:31:35;4.45;;;2.03;;
73382;SDS011;61600;48.126;11.542;2022-07-06T12:34:05;4.30;;;1.85;;
73382;SDS011;61600;48.126;11.542;2022-07-06T12:36:44;3.58;;;1.70;;
73382;SDS011;61600;48.126;11.542;2022-07-06T12:39:13;8.88;;;2.28;;
73382;SDS011;61600;48.126;11.542;2022-07-06T12:41:48;6.05;;;1.90;;
73382;SDS011;61600;48.126;11.542;2022-07-06T12:44:19;3.38;;;1.85;;
73382;SDS011;61600;48.126;11.542;2022-07-06T12:46:46;3.03;;;1.70;;
73382;SDS011;61600;48.126;11.542;2022-07-06T12:52:33;5.45;;;1.88;;
73382;SDS011;61600;48.126;11.542;2022-07-06T12:57:07;3.30;;;2.00;;
73382;SDS011;61600;48.126;11.542;2022-07-06T12:59:38;3.72;;;1.75;;
73382;SDS011;61600;48.126;11.542;2022-07-06T13:02:09;3.58;;;1.50;;
73382;SDS011;61600;48.126;11.542;2022-07-06T13:05:00;4.50;;;1.73;;
73382;SDS011;61600;48.126;11.542;2022-07-06T13:07:28;4.75;;;1.70;;
73382;SDS011;61600;48.126;11.542;2022-07-06T13:10:02;5.53;;;1.80;;
73382;SDS011;61600;48.126;11.542;2022-07-06T13:12:32;7.13;;;2.00;;
73382;SDS011;61600;48.126;11.542;2022-07-06T13:14:57;4.40;;;1.80;;
73382;SDS011;61600;48.126;11.542;2022-07-06T13:17:23;4.72;;;1.95;;
73382;SDS011;61600;48.126;11.542;2022-07-06T13:19:49;6.57;;;1.80;;
73382;SDS011;61600;48.126;11.542;2022-07-06T13:22:15;2.63;;;1.80;;
73382;SDS011;61600;48.126;11.542;2022-07-06T13:24:41;2.40;;;1.60;;
73382;SDS011;61600;48.126;11.542;2022-07-06T13:27:07;2.78;;;1.73;;
73382;SDS011;61600;48.126;11.542;2022-07-06T13:29:33;2.53;;;1.80;;
73382;SDS011;61600;48.126;11.542;2022-07-06T13:31:59;4.07;;;1.63;;
73382;SDS011;61600;48.126;11.542;2022-07-06T13:34:24;3.72;;;1.63;;
73382;SDS011;61600;48.126;11.542;2022-07-06T13:36:51;2.80;;;1.65;;
73382;SDS011;61600;48.126;11.542;2022-07-06T13:39:17;4.07;;;1.80;;
73382;SDS011;61600;48.126;11.542;2022-07-06T13:41:43;2.65;;;1.70;;
73382;SDS011;61600;48.126;11.542;2022-07-06T13:44:08;3.15;;;1.75;;
73382;SDS011;61600;48.126;11.542;2022-07-06T13:46:35;6.22;;;1.63;;
73382;SDS011;61600;48.126;11.542;2022-07-06T13:49:10;4.85;;;1.80;;
73382;SDS011;61600;48.126;11.542;2022-07-06T13:51:35;4.18;;;1.75;;
73382;SDS011;61600;48.126;11.542;2022-07-06T13:56:27;4.13;;;1.80;;
73382;SDS011;61600;48.126;11.542;2022-07-06T13:59:13;3.83;;;1.80;;
73382;SDS011;61600;48.126;11.542;2022-07-06T14:04:03;5.20;;;1.70;;
73382;SDS011;61600;48.126;11.542;2022-07-06T14:08:54;3.85;;;1.77;;
73382;SDS011;61600;48.126;11.542;2022-07-06T14:11:20;3.10;;;1.60;;
73382;SDS011;61600;48.126;11.542;2022-07-06T14:13:46;4.43;;;1.70;;
73382;SDS011;61600;48.126;11.542;2022-07-06T14:18:37;4.95;;;1.83;;
73382;SDS011;61600;48.126;11.542;2022-07-06T14:23:29;2.30;;;1.60;;
73382;SDS011;61600;48.126;11.542;2022-07-06T14:25:55;3.42;;;1.38;;
73382;SDS011;61600;48.126;11.542;2022-07-06T14:28:22;7.15;;;1.98;;
73382;SDS011;61600;48.126;11.542;2022-07-06T14:33:13;4.40;;;1.73;;
73382;SDS011;61600;48.126;11.542;2022-07-06T14:35:50;3.40;;;1.85;;
73382;SDS011;61600;48.126;11.542;2022-07-06T14:38:18;1.92;;;1.40;;
73382;SDS011;61600;48.126;11.542;2022-07-06T14:40:45;3.88;;;1.70;;
73382;SDS011;61600;48.126;11.542;2022-07-06T14:43:13;4.95;;;1.75;;
73382;SDS011;61600;48.126;11.542;2022-07-06T14:48:05;3.22;;;1.42;;
73382;SDS011;61600;48.126;11.542;2022-07-06T14:50:31;6.03;;;1.50;;
73382;SDS011;61600;48.126;11.542;2022-07-06T14:52:57;5.40;;;1.73;;
73382;SDS011;61600;48.126;11.542;2022-07-06T14:57:48;2.28;;;1.65;;
73382;SDS011;61600;48.126;11.542;2022-07-06T15:02:40;3.50;;;1.92;;
73382;SDS011;61600;48.126;11.542;2022-07-06T15:05:07;3.33;;;1.60;;
73382;SDS011;61600;48.126;11.542;2022-07-06T15:07:33;4.75;;;1.65;;
73382;SDS011;61600;48.126;11.542;2022-07-06T15:12:24;4.85;;;1.83;;
73382;SDS011;61600;48.126;11.542;2022-07-06T15:14:50;5.88;;;1.60;;
73382;SDS011;61600;48.126;11.542;2022-07-06T15:17:15;3.13;;;1.35;;
73382;SDS011;61600;48.126;11.542;2022-07-06T15:19:42;2.97;;;1.65;;
73382;SDS011;61600;48.126;11.542;2022-07-06T15:22:09;3.47;;;1.90;;
73382;SDS011;61600;48.126;11.542;2022-07-06T15:24:34;6.65;;;1.65;;
73382;SDS011;61600;48.126;11.542;2022-07-06T15:27:01;2.50;;;1.80;;
73382;SDS011;61600;48.126;11.542;2022-07-06T15:29:28;2.20;;;1.30;;